Basco, Illinois
Current Conditions -  °F | °C
As of 8:35 PM on Saturday 22 Nov 2014 (Local Time) from KEOK Reporting Station
Clear Clear  
Wind Chill: 54°   Ceiling: Unl
Heat Index: 54°   Visibility: 10mi
Dew Point: 50°   Wind: 13mph
Humidity: 88%   Direction: 170°S
Pressure: 29.79"   Gusts: 21mph
Location:  40.33°N, 91.2°W
Report Text: KEOK 230235Z AUTO 17011G18KT 10SM CLR 12/10 A2979 RMK AO2
Loading
Personal Weather Stations






























Interactive Weather Map New forecast layout! Learn more

10-Day Weather Forecast

Advertisements
Track Severe Weather on mobile